createdAt,value
2019-04-11T00:01:32.537Z,58.26
2019-04-11T00:03:51.466Z,58.47
2019-04-11T00:06:19.788Z,58.58
2019-04-11T00:08:48.193Z,58.76
2019-04-11T00:11:17.464Z,58.92
2019-04-11T00:13:45.945Z,59.18
2019-04-11T00:16:15.245Z,59.29
2019-04-11T00:18:43.519Z,59.39
2019-04-11T00:21:12.842Z,59.56
2019-04-11T00:23:41.191Z,59.64
2019-04-11T00:26:09.502Z,59.78
2019-04-11T00:28:38.063Z,60.17
2019-04-11T00:31:06.429Z,60.19
2019-04-11T00:33:34.667Z,60.31
2019-04-11T00:36:04.108Z,60.43
2019-04-11T00:38:32.627Z,60.54
2019-04-11T00:41:01.662Z,60.60
2019-04-11T00:43:36.802Z,60.66
2019-04-11T00:46:01.496Z,60.79
2019-04-11T00:48:30.226Z,61.02
2019-04-11T00:50:59.317Z,61.28
2019-04-11T00:53:27.844Z,61.39
2019-04-11T00:55:56.141Z,61.44
2019-04-11T00:58:25.561Z,61.54
2019-04-11T01:00:55.336Z,61.60
2019-04-11T01:03:24.281Z,61.85
2019-04-11T01:05:53.999Z,61.99
2019-04-11T01:08:23.965Z,62.14
2019-04-11T01:10:52.267Z,62.14
2019-04-11T01:13:20.960Z,62.36
2019-04-11T01:16:07.013Z,62.54
2019-04-11T01:18:36.190Z,62.68
2019-04-11T01:21:04.557Z,62.82
2019-04-11T01:23:33.242Z,63.06
2019-04-11T01:26:01.621Z,63.24
2019-04-11T01:28:31.005Z,63.42
2019-04-11T01:31:01.124Z,63.28
2019-04-11T01:33:29.712Z,63.44
2019-04-11T01:35:57.979Z,63.45
2019-04-11T01:38:26.608Z,63.55
2019-04-11T01:40:56.091Z,63.84
2019-04-11T01:43:24.385Z,63.98
2019-04-11T01:45:53.591Z,63.89
2019-04-11T01:48:23.785Z,64.12
2019-04-11T01:50:52.071Z,64.30
2019-04-11T01:53:20.719Z,64.04
2019-04-11T01:55:50.437Z,64.27
2019-04-11T01:58:18.797Z,64.36
2019-04-11T02:00:50.815Z,64.55
2019-04-11T02:03:21.195Z,64.79
2019-04-11T02:05:49.591Z,64.79
2019-04-11T02:08:17.890Z,64.89
2019-04-11T02:10:46.565Z,65.14
2019-04-11T02:13:15.399Z,65.14
2019-04-11T02:15:44.214Z,65.35
2019-04-11T02:18:13.111Z,65.50
2019-04-11T02:20:41.376Z,65.64
2019-04-11T02:23:21.456Z,65.93
2019-04-11T02:26:10.076Z,65.94
2019-04-11T02:28:40.990Z,66.24
2019-04-11T02:31:11.551Z,66.52
2019-04-11T02:33:41.408Z,66.51
2019-04-11T02:36:11.755Z,66.58
2019-04-11T02:38:41.264Z,66.82
2019-04-11T02:41:10.606Z,67.03
2019-04-11T02:43:42.139Z,67.14
2019-04-11T02:46:19.851Z,67.14
2019-04-11T02:48:40.660Z,67.17
2019-04-11T02:51:09.848Z,67.16
2019-04-11T02:53:38.937Z,67.14
2019-04-11T02:56:09.317Z,67.26
2019-04-11T02:58:39.087Z,67.34
2019-04-11T03:01:09.591Z,67.52
2019-04-11T03:03:39.420Z,67.56
2019-04-11T03:06:09.247Z,67.60
2019-04-11T03:08:38.796Z,67.67
2019-04-11T03:11:10.676Z,67.78
2019-04-11T03:13:38.440Z,67.76
2019-04-11T03:16:23.804Z,68.05
2019-04-11T03:18:55.010Z,68.19
2019-04-11T03:21:13.771Z,68.34
2019-04-11T03:23:39.501Z,68.30
2019-04-11T03:26:09.763Z,68.45
2019-04-11T03:28:38.925Z,68.59
2019-04-11T03:31:42.259Z,68.65
2019-04-11T03:39:02.518Z,68.95
2019-04-11T03:41:25.291Z,69.05
2019-04-11T03:43:50.864Z,69.21
2019-04-11T03:46:29.202Z,69.17
2019-04-11T03:48:53.369Z,69.43
2019-04-11T03:51:11.597Z,69.49
2019-04-11T03:53:41.157Z,69.57
2019-04-11T03:56:12.007Z,69.76
2019-04-11T03:58:41.797Z,69.59
2019-04-11T04:01:11.601Z,69.69
2019-04-11T04:03:42.400Z,69.72
2019-04-11T04:06:10.774Z,69.88
2019-04-11T04:08:39.266Z,69.84
2019-04-11T04:11:12.550Z,69.96
2019-04-11T04:13:47.604Z,70.07
2019-04-11T04:16:40.361Z,70.25
2019-04-11T04:19:22.680Z,70.41
2019-04-11T04:21:55.179Z,70.43
2019-04-11T04:24:37.896Z,70.40
2019-04-11T04:27:07.032Z,70.62
2019-04-11T04:29:37.030Z,70.71
2019-04-11T04:32:05.980Z,70.91
2019-04-11T04:34:36.057Z,71.02
2019-04-11T04:37:05.897Z,71.20
2019-04-11T04:39:37.027Z,71.26
2019-04-11T04:42:12.629Z,71.47
2019-04-11T04:44:35.764Z,71.36
2019-04-11T04:47:13.630Z,71.34
2019-04-11T04:49:34.557Z,71.38
2019-04-11T04:52:05.918Z,71.58
2019-04-11T04:54:36.147Z,71.53
2019-04-11T04:57:05.028Z,71.61
2019-04-11T04:59:34.127Z,71.58
2019-04-11T05:02:03.917Z,71.56
2019-04-11T05:04:33.747Z,71.66
2019-04-11T05:07:03.234Z,71.70
2019-04-11T05:09:32.060Z,71.78
2019-04-11T05:12:01.414Z,71.86
2019-04-11T05:14:31.440Z,71.84
2019-04-11T05:17:00.450Z,71.73
2019-04-11T05:19:29.953Z,71.72
2019-04-11T05:21:59.774Z,71.63
2019-04-11T05:24:28.517Z,71.53
2019-04-11T05:26:57.880Z,71.52
2019-04-11T05:29:27.187Z,71.61
2019-04-11T05:31:56.668Z,71.47
2019-04-11T05:34:25.853Z,71.21
2019-04-11T05:36:55.211Z,70.81
2019-04-11T05:39:23.995Z,70.75
2019-04-11T05:41:52.294Z,70.83
2019-04-11T05:44:20.967Z,70.40
2019-04-11T05:46:55.815Z,70.47
2019-04-11T05:49:22.827Z,70.29
2019-04-11T05:51:58.137Z,70.20
2019-04-11T05:54:28.109Z,69.98
2019-04-11T05:56:59.562Z,70.20
2019-04-11T05:59:30.602Z,70.17
2019-04-11T06:02:10.923Z,69.81
2019-04-11T06:04:40.981Z,70.13
2019-04-11T06:07:12.768Z,69.62
2019-04-11T06:09:44.072Z,69.57
2019-04-11T06:12:30.274Z,69.63
2019-04-11T06:15:06.218Z,69.23
2019-04-11T06:17:34.499Z,68.70
2019-04-11T06:20:08.247Z,68.84
2019-04-11T06:22:38.528Z,68.78
2019-04-11T06:25:23.615Z,68.18
2019-04-11T06:27:55.791Z,68.83
2019-04-11T06:30:26.382Z,69.01
2019-04-11T06:33:12.240Z,68.74
2019-04-11T06:35:52.248Z,68.59
2019-04-11T06:38:22.662Z,68.55
2019-04-11T06:40:58.364Z,68.43
2019-04-11T06:43:44.535Z,68.41
2019-04-11T06:46:18.730Z,68.54
2019-04-11T06:48:55.910Z,68.45
2019-04-11T06:51:26.123Z,68.63
2019-04-11T06:54:12.743Z,67.60
2019-04-11T06:56:45.508Z,67.92
2019-04-11T06:59:16.389Z,68.02
2019-04-11T07:01:46.016Z,67.49
2019-04-11T07:04:15.954Z,66.61
2019-04-11T07:06:46.039Z,67.37
2019-04-11T07:09:16.705Z,66.24
2019-04-11T07:11:48.409Z,66.59
2019-04-11T07:14:24.788Z,65.96
2019-04-11T07:17:13.453Z,66.54
2019-04-11T07:20:00.123Z,66.58
2019-04-11T07:22:46.710Z,66.62
2019-04-11T07:25:22.610Z,66.44
2019-04-11T07:27:53.221Z,66.25
2019-04-11T07:30:39.699Z,66.34
2019-04-11T07:33:26.714Z,66.17
2019-04-11T07:36:14.543Z,65.83
2019-04-11T07:38:59.888Z,65.58
2019-04-11T07:41:39.935Z,65.64
2019-04-11T07:44:10.956Z,65.62
2019-04-11T07:46:58.241Z,65.78
2019-04-11T07:49:35.046Z,65.42
2019-04-11T07:52:06.722Z,64.85
2019-04-11T07:54:35.442Z,64.28
2019-04-11T07:57:05.523Z,64.44
2019-04-11T07:59:37.884Z,64.44
2019-04-11T08:02:08.792Z,64.34
2019-04-11T08:04:55.624Z,63.27
2019-04-11T08:07:42.515Z,62.84
2019-04-11T08:10:16.224Z,62.51
2019-04-11T08:12:46.181Z,62.40
2019-04-11T08:15:34.211Z,62.47
2019-04-11T08:18:14.622Z,62.21
2019-04-11T08:20:57.454Z,62.41
2019-04-11T08:23:27.699Z,62.02
2019-04-11T08:26:14.043Z,62.34
2019-04-11T08:28:43.503Z,60.34
2019-04-11T08:31:22.000Z,60.13
2019-04-11T08:33:53.043Z,60.18
2019-04-11T08:36:24.042Z,60.33
2019-04-11T08:38:53.026Z,60.64
2019-04-11T08:41:23.237Z,60.37
2019-04-11T08:43:51.665Z,60.59
2019-04-11T08:46:22.615Z,60.28
2019-04-11T08:49:09.795Z,60.10
2019-04-11T08:51:39.121Z,59.62
2019-04-11T08:54:25.819Z,59.60
2019-04-11T08:56:55.662Z,59.18
2019-04-11T08:59:31.341Z,59.54
2019-04-11T09:02:00.404Z,59.65
2019-04-11T09:04:46.408Z,59.59
2019-04-11T09:07:17.020Z,58.93
2019-04-11T09:10:04.106Z,58.98
2019-04-11T09:12:32.418Z,58.92
2019-04-11T09:15:05.399Z,58.55
2019-04-11T09:17:36.558Z,58.53
2019-04-11T09:20:24.720Z,58.54
2019-04-11T09:22:55.465Z,58.32
2019-04-11T09:25:41.633Z,57.96
2019-04-11T09:28:18.000Z,57.84
2019-04-11T09:30:57.090Z,57.04
2019-04-11T09:33:39.710Z,56.81
2019-04-11T09:36:29.163Z,56.58
2019-04-11T09:39:08.863Z,56.57
2019-04-11T09:41:55.032Z,55.74
2019-04-11T09:44:24.993Z,55.09
2019-04-11T09:47:01.360Z,54.23
2019-04-11T09:49:37.683Z,53.81
2019-04-11T09:52:08.764Z,52.00
2019-04-11T09:54:54.682Z,51.86
2019-04-11T09:57:30.203Z,52.68
2019-04-11T10:00:12.364Z,51.36
2019-04-11T10:02:48.331Z,49.55
2019-04-11T10:05:22.366Z,50.07
2019-04-11T10:07:52.665Z,49.70
2019-04-11T10:10:28.917Z,48.92
2019-04-11T10:13:18.620Z,48.54
2019-04-11T10:15:51.609Z,48.35
2019-04-11T10:18:36.576Z,48.08
2019-04-11T10:21:01.279Z,47.42
2019-04-11T10:23:32.567Z,47.09
2019-04-11T10:26:01.462Z,46.35
2019-04-11T10:28:31.466Z,45.63
2019-04-11T10:31:10.653Z,45.48
2019-04-11T10:33:50.022Z,44.88
2019-04-11T10:36:23.145Z,45.05
2019-04-11T10:39:09.696Z,45.05
2019-04-11T10:41:40.042Z,44.85
2019-04-11T10:44:09.664Z,45.01
2019-04-11T10:46:56.331Z,44.35
2019-04-11T10:49:30.387Z,43.23
2019-04-11T10:52:00.440Z,42.57
2019-04-11T10:54:31.037Z,42.72
2019-04-11T10:57:05.599Z,42.19
2019-04-11T10:59:35.654Z,41.48
2019-04-11T11:02:06.646Z,40.21
2019-04-11T11:04:39.010Z,38.53
2019-04-11T11:07:10.188Z,38.87
2019-04-11T11:09:42.040Z,38.69
2019-04-11T11:12:21.296Z,39.55
2019-04-11T11:15:07.207Z,40.04
2019-04-11T11:18:20.506Z,39.78
2019-04-11T11:20:39.080Z,36.77
2019-04-11T11:23:21.128Z,36.85
2019-04-11T11:25:57.036Z,37.39
2019-04-11T11:28:26.991Z,38.27
2019-04-11T11:31:03.202Z,38.42
2019-04-11T11:33:34.108Z,39.01
2019-04-11T11:36:21.365Z,39.27
2019-04-11T11:38:52.298Z,39.16
2019-04-11T11:41:38.979Z,38.69
2019-04-11T11:44:09.736Z,39.53
2019-04-11T11:46:59.861Z,39.18
2019-04-11T11:49:41.783Z,39.96
2019-04-11T11:52:03.713Z,40.96
2019-04-11T11:54:33.666Z,40.98
2019-04-11T11:57:04.591Z,41.51
2019-04-11T11:59:48.205Z,41.25
2019-04-11T12:02:28.470Z,41.04
2019-04-11T12:05:02.492Z,42.02
2019-04-11T12:07:37.799Z,42.42
2019-04-11T12:10:17.377Z,42.25
2019-04-11T12:13:08.023Z,41.61
2019-04-11T12:15:53.332Z,41.50
2019-04-11T12:18:26.747Z,41.31
2019-04-11T12:21:05.810Z,41.01
2019-04-11T12:23:46.646Z,40.94
2019-04-11T12:26:07.628Z,40.96
2019-04-11T12:28:50.030Z,41.62
2019-04-11T12:31:19.506Z,41.42
2019-04-11T12:34:06.210Z,41.68
2019-04-11T12:36:37.049Z,41.54
2019-04-11T12:39:09.060Z,42.24
2019-04-11T12:41:39.278Z,42.19
2019-04-11T12:44:20.835Z,42.33
2019-04-11T12:46:53.634Z,41.93
2019-04-11T12:49:26.295Z,42.13
2019-04-11T12:52:12.301Z,42.04
2019-04-11T12:54:42.383Z,42.09
2019-04-11T12:57:28.492Z,41.92
2019-04-11T13:00:01.173Z,42.02
2019-04-11T13:02:47.747Z,41.38
2019-04-11T13:05:17.726Z,41.09
2019-04-11T13:07:47.647Z,40.07
2019-04-11T13:10:16.529Z,39.18
2019-04-11T13:13:01.925Z,39.28
2019-04-11T13:15:31.866Z,39.23
2019-04-11T13:18:01.829Z,39.13
2019-04-11T13:20:43.544Z,39.52
2019-04-11T13:23:31.894Z,39.61
2019-04-11T13:26:10.453Z,39.38
2019-04-11T13:28:40.329Z,39.38
2019-04-11T13:31:16.580Z,38.68
2019-04-11T13:33:45.073Z,39.66
2019-04-11T13:36:27.056Z,39.87
2019-04-11T13:38:55.643Z,40.29
2019-04-11T13:41:31.374Z,40.54
2019-04-11T13:44:00.507Z,41.01
2019-04-11T13:46:36.607Z,40.95
2019-04-11T13:49:23.431Z,41.13
2019-04-11T13:52:02.541Z,41.27
2019-04-11T13:54:32.474Z,41.36
2019-04-11T13:57:02.737Z,41.21
2019-04-11T13:59:35.271Z,40.95
2019-04-11T14:02:09.116Z,40.89
2019-04-11T14:04:57.796Z,41.30
2019-04-11T14:07:30.309Z,41.51
2019-04-11T14:10:09.275Z,41.88
2019-04-11T14:12:38.549Z,42.14
2019-04-11T14:15:11.943Z,42.31
2019-04-11T14:17:45.048Z,42.19
2019-04-11T14:20:29.195Z,42.46
2019-04-11T14:23:05.347Z,41.75
2019-04-11T14:25:48.085Z,41.77
2019-04-11T14:28:18.035Z,41.18
2019-04-11T14:30:51.745Z,40.67
2019-04-11T14:33:18.378Z,41.88
2019-04-11T14:36:00.334Z,40.71
2019-04-11T14:38:32.041Z,39.72
2019-04-11T14:41:09.823Z,40.00
2019-04-11T14:43:43.815Z,39.59
2019-04-11T14:46:15.859Z,40.22
2019-04-11T14:48:48.820Z,39.52
2019-04-11T14:51:27.867Z,38.64
2019-04-11T14:54:00.622Z,39.22
2019-04-11T14:56:33.394Z,39.26
2019-04-11T14:59:23.889Z,39.74
2019-04-11T15:01:53.226Z,40.13
2019-04-11T15:04:26.230Z,39.88
2019-04-11T15:06:56.186Z,38.99
2019-04-11T15:09:41.162Z,39.34
2019-04-11T15:12:17.835Z,38.59
2019-04-11T15:14:51.936Z,38.88
2019-04-11T15:17:21.909Z,39.25
2019-04-11T15:20:02.656Z,39.47
2019-04-11T15:22:50.738Z,39.54
2019-04-11T15:25:20.679Z,39.59
2019-04-11T15:27:56.361Z,38.83
2019-04-11T15:30:38.450Z,39.65
2019-04-11T15:33:24.917Z,38.91
2019-04-11T15:35:58.595Z,39.30
2019-04-11T15:38:45.499Z,39.08
2019-04-11T15:41:13.822Z,38.93
2019-04-11T15:43:59.700Z,38.32
2019-04-11T15:46:29.782Z,38.65
2019-04-11T15:49:21.893Z,39.54
2019-04-11T15:51:47.775Z,39.65
2019-04-11T15:54:17.750Z,39.50
2019-04-11T15:56:53.398Z,39.91
2019-04-11T15:59:38.745Z,40.23
2019-04-11T16:02:09.015Z,40.56
2019-04-11T16:04:47.807Z,40.50
2019-04-11T16:07:37.581Z,40.53
2019-04-11T16:10:07.237Z,40.51
2019-04-11T16:12:55.654Z,39.89
2019-04-11T16:15:25.892Z,39.99
2019-04-11T16:17:57.932Z,39.71
2019-04-11T16:20:26.160Z,39.59
2019-04-11T16:22:56.109Z,39.65
2019-04-11T16:25:24.422Z,40.14
2019-04-11T16:28:10.924Z,39.43
2019-04-11T16:30:43.616Z,39.91
2019-04-11T16:33:13.543Z,40.55
2019-04-11T16:35:49.766Z,40.82
2019-04-11T16:38:29.012Z,41.00
2019-04-11T16:41:07.852Z,41.37
2019-04-11T16:43:37.561Z,41.48
2019-04-11T16:46:24.580Z,42.01
2019-04-11T16:48:55.650Z,41.79
2019-04-11T16:51:30.690Z,41.62
2019-04-11T16:53:52.574Z,41.49
2019-04-11T16:56:21.359Z,41.83
2019-04-11T16:58:50.287Z,42.16
2019-04-11T17:01:20.751Z,42.76
2019-04-11T17:03:48.744Z,42.92
2019-04-11T17:06:36.913Z,42.80
2019-04-11T17:09:14.235Z,43.06
2019-04-11T17:11:42.519Z,43.08
2019-04-11T17:14:11.978Z,43.44
2019-04-11T17:16:40.305Z,43.51
2019-04-11T17:19:08.623Z,43.63
2019-04-11T17:21:43.126Z,43.86
2019-04-11T17:24:07.317Z,44.06
2019-04-11T17:26:35.622Z,44.34
2019-04-11T17:29:03.949Z,44.70
2019-04-11T17:31:33.213Z,44.96
2019-04-11T17:34:02.425Z,45.15
2019-04-11T17:36:33.518Z,45.38
2019-04-11T17:39:01.100Z,45.57
2019-04-11T17:41:29.415Z,45.64
2019-04-11T17:43:57.719Z,45.50
2019-04-11T17:46:26.927Z,45.73
2019-04-11T17:48:56.122Z,45.66
2019-04-11T17:51:24.525Z,45.48
2019-04-11T17:53:54.985Z,45.31
2019-04-11T17:56:24.816Z,45.54
2019-04-11T17:58:52.847Z,45.48
2019-04-11T18:01:21.214Z,45.58
2019-04-11T18:03:49.612Z,45.65
2019-04-11T18:06:18.012Z,45.82
2019-04-11T18:08:46.724Z,45.90
2019-04-11T18:11:15.526Z,46.09
2019-04-11T18:13:43.842Z,46.16
2019-04-11T18:16:12.161Z,46.32
2019-04-11T18:18:40.480Z,46.47
2019-04-11T18:21:08.864Z,46.67
2019-04-11T18:23:37.519Z,46.81
2019-04-11T18:26:05.968Z,46.94
2019-04-11T18:28:34.253Z,47.00
2019-04-11T18:31:02.592Z,47.07
2019-04-11T18:33:32.295Z,47.24
2019-04-11T18:36:02.212Z,47.02
2019-04-11T18:38:32.062Z,47.24
2019-04-11T18:41:01.054Z,47.30
2019-04-11T18:43:29.388Z,47.30
2019-04-11T18:45:57.684Z,47.43
2019-04-11T18:48:26.511Z,47.51
2019-04-11T18:50:54.860Z,47.57
2019-04-11T18:53:23.177Z,47.64
2019-04-11T18:55:51.483Z,47.72
2019-04-11T18:58:19.781Z,47.85
2019-04-11T19:00:48.427Z,47.95
2019-04-11T19:03:17.034Z,47.99
2019-04-11T19:05:45.688Z,48.14
2019-04-11T19:08:13.976Z,48.15
2019-04-11T19:10:42.917Z,48.17
2019-04-11T19:13:12.329Z,48.20
2019-04-11T19:15:40.641Z,48.28
2019-04-11T19:18:09.011Z,48.43
2019-04-11T19:20:37.330Z,48.39
2019-04-11T19:23:07.638Z,48.41
2019-04-11T19:25:35.640Z,48.52
2019-04-11T19:28:03.941Z,48.72
2019-04-11T19:30:32.258Z,48.80
2019-04-11T19:33:00.569Z,48.94
2019-04-11T19:35:28.877Z,48.89
2019-04-11T19:37:57.877Z,48.90
2019-04-11T19:40:26.474Z,48.93
2019-04-11T19:42:54.798Z,49.14
2019-04-11T19:45:23.376Z,49.07
2019-04-11T19:47:52.255Z,49.14
2019-04-11T19:50:21.221Z,49.32
2019-04-11T19:52:49.664Z,49.20
2019-04-11T19:55:34.500Z,49.24
2019-04-11T19:58:01.660Z,49.34
2019-04-11T20:00:30.501Z,49.36
2019-04-11T20:02:58.800Z,49.44
2019-04-11T20:05:27.176Z,49.52
2019-04-11T20:07:55.535Z,49.46
2019-04-11T20:10:23.840Z,49.51
2019-04-11T20:12:52.172Z,49.61
2019-04-11T20:15:20.771Z,49.63
2019-04-11T20:17:52.036Z,49.95
2019-04-11T20:20:19.678Z,50.10
2019-04-11T20:22:58.410Z,50.10
2019-04-11T20:25:17.998Z,50.33
2019-04-11T20:27:48.161Z,50.55
2019-04-11T20:30:16.540Z,50.54
2019-04-11T20:32:44.827Z,50.62
2019-04-11T20:35:13.641Z,50.61
2019-04-11T20:37:44.600Z,50.65
2019-04-11T20:40:12.432Z,50.67
2019-04-11T20:42:40.969Z,50.75
2019-04-11T20:45:09.523Z,50.74
2019-04-11T20:47:37.821Z,50.96
2019-04-11T20:50:07.545Z,51.00
2019-04-11T20:52:36.158Z,51.08
2019-04-11T20:55:08.979Z,51.19
2019-04-11T20:57:35.978Z,51.35
2019-04-11T21:00:06.224Z,51.40
2019-04-11T21:02:34.816Z,51.47
2019-04-11T21:05:03.119Z,51.51
2019-04-11T21:07:32.518Z,51.63
2019-04-11T21:10:03.722Z,51.70
2019-04-11T21:12:31.189Z,51.68
2019-04-11T21:14:59.777Z,51.66
2019-04-11T21:17:28.061Z,51.71
2019-04-11T21:19:56.376Z,51.87
2019-04-11T21:22:24.820Z,52.03
2019-04-11T21:24:53.275Z,52.23
2019-04-11T21:27:21.595Z,52.30
2019-04-11T21:29:49.903Z,52.39
2019-04-11T21:32:18.544Z,52.41
2019-04-11T21:34:47.112Z,52.38
2019-04-11T21:37:15.424Z,52.27
2019-04-11T21:39:43.736Z,52.33
2019-04-11T21:42:12.033Z,52.35
2019-04-11T21:44:40.361Z,52.39
2019-04-11T21:47:09.008Z,52.55
2019-04-11T21:49:37.766Z,52.60
2019-04-11T21:52:06.089Z,52.63
2019-04-11T21:54:34.379Z,52.62
2019-04-11T21:57:03.032Z,52.74
2019-04-11T21:59:31.346Z,52.80
2019-04-11T22:01:59.813Z,52.92
2019-04-11T22:04:31.034Z,53.03
2019-04-11T22:07:00.671Z,53.02
2019-04-11T22:09:28.632Z,53.11
2019-04-11T22:11:56.942Z,53.06
2019-04-11T22:14:25.702Z,53.22
2019-04-11T22:16:55.050Z,53.24
2019-04-11T22:19:23.763Z,53.24
2019-04-11T22:21:52.048Z,53.33
2019-04-11T22:24:20.345Z,53.37
2019-04-11T22:26:50.627Z,53.39
2019-04-11T22:29:18.704Z,53.51
2019-04-11T22:31:47.010Z,53.49
2019-04-11T22:34:29.080Z,53.56
2019-04-11T22:36:59.603Z,53.57
2019-04-11T22:39:28.950Z,53.61
2019-04-11T22:41:57.509Z,53.49
2019-04-11T22:44:25.847Z,53.57
2019-04-11T22:46:54.136Z,53.60
2019-04-11T22:49:22.441Z,53.63
2019-04-11T22:51:50.738Z,53.72
2019-04-11T22:54:19.316Z,53.75
2019-04-11T22:56:47.611Z,53.88
2019-04-11T22:59:15.935Z,53.98
2019-04-11T23:01:46.923Z,54.04
2019-04-11T23:04:17.152Z,54.29
2019-04-11T23:06:47.205Z,54.30
2019-04-11T23:09:16.591Z,54.48
2019-04-11T23:11:45.377Z,54.58
2019-04-11T23:14:15.790Z,54.69
2019-04-11T23:16:44.211Z,54.77
2019-04-11T23:19:14.357Z,54.84
2019-04-11T23:21:42.769Z,54.91
2019-04-11T23:24:12.248Z,54.92
2019-04-11T23:26:40.699Z,54.89
2019-04-11T23:29:08.997Z,54.99
2019-04-11T23:31:37.323Z,55.07
2019-04-11T23:34:05.614Z,55.16
2019-04-11T23:36:33.929Z,55.35
2019-04-11T23:39:02.224Z,55.41
2019-04-11T23:41:30.546Z,55.43
2019-04-11T23:43:58.835Z,55.51
2019-04-11T23:46:27.437Z,55.46
2019-04-11T23:48:55.761Z,55.54
2019-04-11T23:51:26.340Z,55.52
2019-04-11T23:53:54.052Z,55.45
2019-04-11T23:56:22.336Z,55.54
2019-04-11T23:58:50.649Z,55.64
